createdAt,value
2018-07-28T00:00:44.270Z,43
2018-07-28T00:01:33.806Z,42.9
2018-07-28T00:02:24.385Z,42.9
2018-07-28T00:03:14.468Z,42.9
2018-07-28T00:04:04.523Z,42.9
2018-07-28T00:04:54.650Z,42.9
2018-07-28T00:05:44.346Z,42.9
2018-07-28T00:06:34.691Z,42.9
2018-07-28T00:07:25.022Z,42.9
2018-07-28T00:08:15.088Z,42.9
2018-07-28T00:09:04.070Z,42.9
2018-07-28T00:09:54.224Z,42.9
2018-07-28T00:10:44.921Z,42.9
2018-07-28T00:11:34.598Z,42.9
2018-07-28T00:12:24.613Z,42.9
2018-07-28T00:13:14.591Z,42.9
2018-07-28T00:14:05.243Z,42.9
2018-07-28T00:14:54.993Z,42.9
2018-07-28T00:15:45.661Z,42.9
2018-07-28T00:16:35.415Z,42.9
2018-07-28T00:17:25.726Z,42.8
2018-07-28T00:18:15.551Z,42.8
2018-07-28T00:19:05.630Z,42.8
2018-07-28T00:19:55.961Z,42.8
2018-07-28T00:20:45.508Z,42.8
2018-07-28T00:21:35.517Z,42.8
2018-07-28T00:22:26.143Z,42.8
2018-07-28T00:23:16.211Z,42.8
2018-07-28T00:24:05.183Z,42.8
2018-07-28T00:24:55.761Z,42.8
2018-07-28T00:25:46.503Z,42.8
2018-07-28T00:26:36.294Z,42.8
2018-07-28T00:27:26.590Z,42.8
2018-07-28T00:28:16.493Z,42.8
2018-07-28T00:29:06.255Z,42.8
2018-07-28T00:29:56.488Z,42.8
2018-07-28T00:30:46.681Z,42.8
2018-07-28T00:31:36.632Z,42.8
2018-07-28T00:32:26.999Z,42.7
2018-07-28T00:33:16.782Z,42.8
2018-07-28T00:34:06.680Z,42.7
2018-07-28T00:34:57.168Z,42.7
2018-07-28T00:35:47.260Z,42.7
2018-07-28T00:36:36.184Z,42.7
2018-07-28T00:37:27.074Z,42.7
2018-07-28T00:38:17.120Z,42.7
2018-07-28T00:39:06.949Z,42.6
2018-07-28T00:39:57.263Z,42.7
2018-07-28T00:40:47.368Z,42.6
2018-07-28T00:41:37.693Z,42.6
2018-07-28T00:42:27.491Z,42.6
2018-07-28T00:43:17.507Z,42.6
2018-07-28T00:44:07.927Z,42.6
2018-07-28T00:44:57.386Z,42.6
2018-07-28T00:45:47.936Z,42.6
2018-07-28T00:46:37.751Z,42.6
2018-07-28T00:47:27.886Z,42.6
2018-07-28T00:48:17.868Z,42.6
2018-07-28T00:49:07.989Z,42.6
2018-07-28T00:49:58.269Z,42.6
2018-07-28T00:50:48.032Z,42.6
2018-07-28T00:51:38.472Z,42.6
2018-07-28T00:52:28.166Z,42.6
2018-07-28T00:53:18.011Z,42.6
2018-07-28T00:54:08.296Z,42.6
2018-07-28T00:54:58.712Z,42.5
2018-07-28T00:55:48.139Z,42.5
2018-07-28T00:56:38.528Z,42.5
2018-07-28T00:57:27.740Z,42.5
2018-07-28T00:58:18.427Z,42.5
2018-07-28T00:59:08.422Z,42.5
2018-07-28T00:59:58.520Z,42.5
2018-07-28T01:00:49.167Z,42.5
2018-07-28T01:01:38.893Z,42.5
2018-07-28T01:02:28.801Z,42.4
2018-07-28T01:03:19.078Z,42.4
2018-07-28T01:04:08.839Z,42.4
2018-07-28T01:04:59.216Z,42.4
2018-07-28T01:05:49.270Z,42.4
2018-07-28T01:06:39.325Z,42.4
2018-07-28T01:07:29.770Z,42.4
2018-07-28T01:08:19.178Z,42.4
2018-07-28T01:09:09.533Z,42.4
2018-07-28T01:09:59.874Z,42.4
2018-07-28T01:10:49.670Z,42.4
2018-07-28T01:11:39.476Z,42.4
2018-07-28T01:12:30.062Z,42.4
2018-07-28T01:13:20.133Z,42.4
2018-07-28T01:14:09.929Z,42.4
2018-07-28T01:14:59.504Z,42.4
2018-07-28T01:15:49.586Z,42.4
2018-07-28T01:16:39.444Z,42.4
2018-07-28T01:17:28.880Z,42.4
2018-07-28T01:18:20.013Z,42.4
2018-07-28T01:19:10.587Z,42.4
2018-07-28T01:20:00.343Z,42.3
2018-07-28T01:20:50.145Z,42.3
2018-07-28T01:21:39.964Z,42.3
2018-07-28T01:22:30.529Z,42.3
2018-07-28T01:23:20.401Z,42.3
2018-07-28T01:24:10.389Z,42.3
2018-07-28T01:25:00.432Z,42.3
2018-07-28T01:25:50.765Z,42.3
2018-07-28T01:26:40.580Z,42.3
2018-07-28T01:27:31.151Z,42.3
2018-07-28T01:28:21.247Z,42.3
2018-07-28T01:29:10.486Z,42.3
2018-07-28T01:30:01.046Z,42.3
2018-07-28T01:30:50.901Z,42.3
2018-07-28T01:31:41.544Z,42.3
2018-07-28T01:32:31.298Z,42.3
2018-07-28T01:33:21.365Z,42.3
2018-07-28T01:34:11.114Z,42.2
2018-07-28T01:35:01.474Z,42.2
2018-07-28T01:35:50.984Z,42.2
2018-07-28T01:36:41.863Z,42.2
2018-07-28T01:37:31.155Z,42.2
2018-07-28T01:38:22.054Z,42.2
2018-07-28T01:39:12.291Z,42.2
2018-07-28T01:40:01.907Z,42.1
2018-07-28T01:40:52.235Z,42.1
2018-07-28T01:41:42.023Z,42.1
2018-07-28T01:42:31.828Z,42.1
2018-07-28T01:43:22.139Z,42.1
2018-07-28T01:44:12.525Z,42.1
2018-07-28T01:45:02.288Z,42.1
2018-07-28T01:45:51.559Z,42.1
2018-07-28T01:46:41.565Z,42.1
2018-07-28T01:47:32.763Z,42.1
2018-07-28T01:48:22.827Z,42.1
2018-07-28T01:49:12.634Z,42.1
2018-07-28T01:50:02.470Z,42.1
2018-07-28T01:50:52.990Z,42.1
2018-07-28T01:51:43.108Z,42.1
2018-07-28T01:52:32.588Z,42.1
2018-07-28T01:53:22.981Z,42.1
2018-07-28T01:54:13.276Z,42.1
2018-07-28T01:55:02.743Z,42.1
2018-07-28T01:55:53.038Z,42.1
2018-07-28T01:56:43.128Z,42
2018-07-28T01:57:33.183Z,42
2018-07-28T01:58:22.930Z,42
2018-07-28T01:59:13.589Z,42
2018-07-28T02:00:03.701Z,42
2018-07-28T02:00:53.411Z,42
2018-07-28T02:01:43.255Z,42
2018-07-28T02:02:33.586Z,42
2018-07-28T02:03:22.912Z,41.9
2018-07-28T02:04:13.734Z,41.9
2018-07-28T02:05:03.036Z,41.9
2018-07-28T02:05:53.635Z,42
2018-07-28T02:06:43.518Z,42
2018-07-28T02:07:34.282Z,41.9
2018-07-28T02:08:23.757Z,42
2018-07-28T02:09:14.194Z,41.9
2018-07-28T02:10:04.414Z,41.9
2018-07-28T02:10:54.216Z,41.9
2018-07-28T02:11:44.263Z,41.9
2018-07-28T02:12:34.121Z,41.9
2018-07-28T02:13:23.828Z,41.9
2018-07-28T02:14:13.403Z,41.9
2018-07-28T02:15:04.347Z,41.9
2018-07-28T02:15:54.958Z,41.9
2018-07-28T02:16:45.030Z,41.9
2018-07-28T02:17:34.532Z,41.9
2018-07-28T02:18:24.567Z,41.9
2018-07-28T02:19:14.676Z,41.9
2018-07-28T02:20:04.651Z,41.8
2018-07-28T02:20:55.103Z,41.8
2018-07-28T02:21:45.116Z,41.8
2018-07-28T02:22:34.923Z,41.8
2018-07-28T02:23:25.503Z,41.8
2018-07-28T02:24:15.326Z,41.8
2018-07-28T02:25:05.377Z,41.8
2018-07-28T02:25:55.161Z,41.8
2018-07-28T02:26:45.790Z,41.8
2018-07-28T02:27:35.824Z,41.8
2018-07-28T02:28:25.621Z,41.8
2018-07-28T02:29:16.004Z,41.8
2018-07-28T02:30:05.524Z,41.8
2018-07-28T02:30:55.550Z,41.8
2018-07-28T02:31:45.576Z,41.8
2018-07-28T02:32:35.705Z,41.8
2018-07-28T02:33:25.699Z,41.8
2018-07-28T02:34:15.522Z,41.8
2018-07-28T02:35:05.946Z,41.8
2018-07-28T02:35:56.133Z,41.8
2018-07-28T02:36:46.208Z,41.8
2018-07-28T02:37:36.056Z,41.7
2018-07-28T02:38:26.064Z,41.7
2018-07-28T02:39:16.723Z,41.7
2018-07-28T02:40:05.931Z,41.7
2018-07-28T02:40:55.735Z,41.7
2018-07-28T02:41:46.893Z,41.7
2018-07-28T02:42:36.133Z,41.7
2018-07-28T02:43:26.729Z,41.6
2018-07-28T02:44:16.829Z,41.7
2018-07-28T02:45:06.866Z,41.6
2018-07-28T02:45:56.918Z,41.6
2018-07-28T02:46:47.294Z,41.6
2018-07-28T02:47:37.062Z,41.6
2018-07-28T02:48:26.529Z,41.6
2018-07-28T02:49:17.229Z,41.6
2018-07-28T02:50:07.074Z,41.6
2018-07-28T02:50:57.667Z,41.6
2018-07-28T02:51:46.894Z,41.6
2018-07-28T02:52:37.499Z,41.6
2018-07-28T02:53:27.280Z,41.6
2018-07-28T02:54:17.314Z,41.6
2018-07-28T02:55:07.437Z,41.6
2018-07-28T02:55:58.072Z,41.6
2018-07-28T02:56:47.798Z,41.6
2018-07-28T02:57:37.594Z,41.6
2018-07-28T02:58:28.236Z,41.6
2018-07-28T02:59:18.249Z,41.6
2018-07-28T03:00:07.989Z,41.6
2018-07-28T03:00:58.161Z,41.6
2018-07-28T03:01:48.182Z,41.6
2018-07-28T03:02:38.594Z,41.6
2018-07-28T03:03:28.325Z,41.6
2018-07-28T03:04:18.089Z,41.5
2018-07-28T03:05:08.834Z,41.5
2018-07-28T03:05:58.824Z,41.5
2018-07-28T03:06:48.582Z,41.5
2018-07-28T03:07:38.276Z,41.5
2018-07-28T03:08:29.123Z,41.5
2018-07-28T03:09:18.756Z,41.5
2018-07-28T03:10:08.259Z,41.5
2018-07-28T03:10:59.107Z,41.5
2018-07-28T03:11:48.665Z,41.5
2018-07-28T03:12:38.960Z,41.4
2018-07-28T03:13:29.300Z,41.5
2018-07-28T03:14:19.131Z,41.4
2018-07-28T03:15:09.491Z,41.4
2018-07-28T03:15:58.947Z,41.4
2018-07-28T03:16:48.779Z,41.4
2018-07-28T03:17:39.405Z,41.3
2018-07-28T03:18:29.854Z,41.4
2018-07-28T03:19:19.310Z,41.4
2018-07-28T03:20:09.835Z,41.4
2018-07-28T03:20:58.833Z,41.4
2018-07-28T03:21:49.737Z,41.4
2018-07-28T03:22:40.022Z,41.4
2018-07-28T03:23:29.245Z,41.4
2018-07-28T03:24:19.958Z,41.4
2018-07-28T03:25:09.798Z,41.4
2018-07-28T03:26:00.085Z,41.4
2018-07-28T03:26:50.425Z,41.4
2018-07-28T03:27:40.161Z,41.3
2018-07-28T03:28:30.580Z,41.3
2018-07-28T03:29:20.635Z,41.3
2018-07-28T03:30:10.404Z,41.3
2018-07-28T03:31:00.303Z,41.4
2018-07-28T03:31:50.821Z,41.3
2018-07-28T03:32:40.320Z,41.3
2018-07-28T03:33:30.597Z,41.3
2018-07-28T03:34:20.683Z,41.3
2018-07-28T03:35:10.444Z,41.3
2018-07-28T03:36:00.788Z,41.3
2018-07-28T03:36:50.358Z,41.3
2018-07-28T03:37:40.950Z,41.3
2018-07-28T03:38:30.686Z,41.3
2018-07-28T03:39:20.799Z,41.3
2018-07-28T03:40:11.104Z,41.3
2018-07-28T03:41:00.893Z,41.3
2018-07-28T03:41:50.953Z,41.3
2018-07-28T03:42:41.027Z,41.3
2018-07-28T03:43:30.776Z,41.3
2018-07-28T03:44:21.681Z,41.3
2018-07-28T03:45:11.455Z,41.3
2018-07-28T03:46:00.940Z,41.3
2018-07-28T03:46:51.647Z,41.3
2018-07-28T03:47:41.915Z,41.2
2018-07-28T03:48:31.721Z,41.2
2018-07-28T03:49:22.736Z,41.2
2018-07-28T03:50:11.895Z,41.2
2018-07-28T03:51:02.260Z,41.2
2018-07-28T03:51:51.744Z,41.3
2018-07-28T03:52:42.073Z,41.1
2018-07-28T03:53:32.469Z,41.1
2018-07-28T03:54:22.196Z,41.1
2018-07-28T03:55:12.280Z,41.1
2018-07-28T03:56:02.082Z,41.1
2018-07-28T03:56:51.592Z,41.1
2018-07-28T03:57:42.470Z,41.1
2018-07-28T03:58:32.842Z,41.1
2018-07-28T03:59:22.907Z,41.1
2018-07-28T04:00:12.367Z,41.1
2018-07-28T04:01:02.714Z,41.1
2018-07-28T04:01:52.527Z,41.1
2018-07-28T04:02:42.083Z,41.1
2018-07-28T04:03:31.815Z,41.1
2018-07-28T04:04:22.875Z,41.1
2018-07-28T04:05:12.816Z,41.1
2018-07-28T04:06:02.773Z,41.1
2018-07-28T04:06:53.142Z,41.1
2018-07-28T04:07:43.216Z,41.1
2018-07-28T04:08:32.970Z,41.1
2018-07-28T04:09:23.309Z,41.1
2018-07-28T04:10:13.150Z,41.1
2018-07-28T04:11:02.908Z,41
2018-07-28T04:11:53.815Z,41
2018-07-28T04:12:42.752Z,41
2018-07-28T04:13:33.987Z,41
2018-07-28T04:14:24.544Z,41
2018-07-28T04:15:13.532Z,41
2018-07-28T04:16:04.122Z,41.1
2018-07-28T04:16:53.137Z,41
2018-07-28T04:17:44.020Z,41
2018-07-28T04:18:34.407Z,41
2018-07-28T04:19:24.168Z,40.9
2018-07-28T04:20:14.272Z,41
2018-07-28T04:21:04.074Z,40.9
2018-07-28T04:21:54.337Z,40.9
2018-07-28T04:22:44.409Z,41
2018-07-28T04:23:34.754Z,40.9
2018-07-28T04:24:24.799Z,41
2018-07-28T04:25:14.884Z,40.9
2018-07-28T04:26:05.001Z,40.9
2018-07-28T04:26:54.988Z,40.9
2018-07-28T04:27:44.774Z,40.9
2018-07-28T04:28:35.154Z,40.9
2018-07-28T04:29:25.089Z,40.9
2018-07-28T04:30:15.266Z,40.9
2018-07-28T04:31:05.084Z,40.9
2018-07-28T04:31:54.885Z,40.9
2018-07-28T04:32:45.257Z,40.9
2018-07-28T04:33:35.044Z,40.9
2018-07-28T04:34:25.615Z,40.9
2018-07-28T04:35:15.342Z,40.9
2018-07-28T04:36:05.434Z,40.9
2018-07-28T04:36:55.769Z,40.8
2018-07-28T04:37:45.734Z,40.9
2018-07-28T04:38:35.893Z,40.8
2018-07-28T04:39:24.869Z,40.9
2018-07-28T04:40:14.939Z,40.9
2018-07-28T04:41:05.796Z,40.9
2018-07-28T04:41:55.686Z,40.8
2018-07-28T04:42:46.175Z,40.8
2018-07-28T04:43:36.340Z,40.8
2018-07-28T04:44:25.306Z,40.8
2018-07-28T04:45:16.385Z,40.8
2018-07-28T04:46:05.879Z,40.8
2018-07-28T04:46:56.536Z,40.8
2018-07-28T04:47:45.726Z,40.8
2018-07-28T04:48:35.807Z,40.8
2018-07-28T04:49:25.889Z,40.8
2018-07-28T04:50:16.514Z,40.8
2018-07-28T04:51:06.568Z,40.8
2018-07-28T04:51:56.639Z,40.8
2018-07-28T04:52:46.949Z,40.8
2018-07-28T04:53:36.779Z,40.8
2018-07-28T04:54:26.830Z,40.8
2018-07-28T04:55:16.911Z,40.8
2018-07-28T04:56:06.719Z,40.8
2018-07-28T04:56:56.763Z,40.8
2018-07-28T04:57:46.814Z,40.8
2018-07-28T04:58:36.968Z,40.7
2018-07-28T04:59:27.222Z,40.7
2018-07-28T05:00:17.623Z,40.7
2018-07-28T05:01:07.171Z,40.7
2018-07-28T05:01:56.846Z,40.7
2018-07-28T05:02:46.917Z,40.7
2018-07-28T05:03:37.618Z,40.7
2018-07-28T05:04:27.928Z,40.7
2018-07-28T05:05:17.128Z,40.6
2018-07-28T05:06:06.895Z,40.6
2018-07-28T05:06:57.797Z,40.6
2018-07-28T05:07:49.224Z,40.5
2018-07-28T05:08:37.161Z,40.4
2018-07-28T05:09:27.455Z,40.4
2018-07-28T05:10:18.109Z,40.4
2018-07-28T05:11:08.136Z,40.4
2018-07-28T05:11:58.191Z,40.3
2018-07-28T05:12:47.952Z,40.3
2018-07-28T05:13:37.488Z,40.3
2018-07-28T05:14:28.336Z,40.3
2018-07-28T05:15:18.396Z,40.3
2018-07-28T05:16:08.526Z,40.3
2018-07-28T05:16:58.794Z,40.3
2018-07-28T05:17:48.852Z,40.3
2018-07-28T05:18:38.372Z,40.3
2018-07-28T05:19:28.485Z,40.3
2018-07-28T05:20:18.526Z,40.2
2018-07-28T05:21:08.858Z,40.3
2018-07-28T05:21:58.936Z,40.3
2018-07-28T05:22:49.004Z,40.3
2018-07-28T05:23:39.710Z,40.2
2018-07-28T05:24:29.404Z,40.2
2018-07-28T05:25:18.868Z,40.2
2018-07-28T05:26:09.220Z,40.2
2018-07-28T05:26:59.590Z,40.2
2018-07-28T05:27:49.705Z,40.2
2018-07-28T05:28:39.164Z,40.2
2018-07-28T05:29:29.595Z,40.1
2018-07-28T05:30:19.344Z,40.1
2018-07-28T05:31:09.399Z,40.1
2018-07-28T05:31:59.464Z,40.1
2018-07-28T05:32:50.044Z,40.1
2018-07-28T05:33:39.851Z,40.1
2018-07-28T05:34:29.944Z,40.1
2018-07-28T05:35:19.780Z,40.1
2018-07-28T05:36:10.341Z,40.1
2018-07-28T05:37:00.205Z,40.1
2018-07-28T05:37:49.987Z,40.1
2018-07-28T05:38:39.961Z,40.1
2018-07-28T05:39:29.517Z,40.1
2018-07-28T05:40:20.647Z,40.1
2018-07-28T05:41:10.435Z,40.1
2018-07-28T05:42:00.822Z,40.1
2018-07-28T05:42:50.860Z,40
2018-07-28T05:43:40.917Z,40
2018-07-28T05:44:30.444Z,40
2018-07-28T05:45:20.533Z,40
2018-07-28T05:46:10.367Z,40
2018-07-28T05:47:00.381Z,40
2018-07-28T05:47:50.726Z,39.9
2018-07-28T05:48:40.453Z,39.9
2018-07-28T05:49:31.079Z,40
2018-07-28T05:50:21.801Z,39.9
2018-07-28T05:51:10.977Z,39.9
2018-07-28T05:52:01.557Z,39.9
2018-07-28T05:52:51.327Z,39.9
2018-07-28T05:53:40.807Z,39.9
2018-07-28T05:54:31.735Z,39.9
2018-07-28T05:55:21.527Z,39.9
2018-07-28T05:56:11.850Z,39.9
2018-07-28T05:57:01.678Z,39.9
2018-07-28T05:57:51.721Z,39.9
2018-07-28T05:58:41.521Z,39.9
2018-07-28T05:59:31.503Z,39.9
2018-07-28T06:00:21.396Z,39.9
2018-07-28T06:01:11.354Z,39.9
2018-07-28T06:02:01.462Z,39.9
2018-07-28T06:02:53.237Z,32.4
2018-07-28T06:03:42.124Z,32.3
2018-07-28T06:04:31.728Z,33.9
2018-07-28T06:05:21.756Z,34.2
2018-07-28T06:06:12.657Z,34.3
2018-07-28T06:07:01.588Z,34.3
2018-07-28T06:07:52.767Z,34.2
2018-07-28T06:08:42.584Z,34.2
2018-07-28T06:09:32.361Z,34.3
2018-07-28T06:10:22.721Z,34.5
2018-07-28T06:11:12.789Z,34.8
2018-07-28T06:12:02.826Z,35
2018-07-28T06:12:52.055Z,35.3
2018-07-28T06:13:42.505Z,35.5
2018-07-28T06:14:33.033Z,35.8
2018-07-28T06:15:23.364Z,36
2018-07-28T06:16:13.190Z,36.3
2018-07-28T06:17:03.211Z,36.5
2018-07-28T06:17:53.571Z,36.7
2018-07-28T06:18:42.859Z,36.9
2018-07-28T06:19:32.923Z,37.1
2018-07-28T06:20:24.927Z,37.3
2018-07-28T06:21:13.309Z,37.4
2018-07-28T06:22:04.608Z,37.5
2018-07-28T06:22:53.479Z,37.7
2018-07-28T06:23:42.951Z,37.8
2018-07-28T06:24:34.050Z,37.9
2018-07-28T06:25:23.576Z,38
2018-07-28T06:26:13.914Z,38.1
2018-07-28T06:27:04.251Z,38.2
2018-07-28T06:27:53.696Z,38.3
2018-07-28T06:28:43.842Z,38.4
2018-07-28T06:29:34.106Z,38.5
2018-07-28T06:30:23.963Z,36.6
2018-07-28T06:31:13.760Z,34.7
2018-07-28T06:32:05.281Z,37.1
2018-07-28T06:32:54.250Z,37.2
2018-07-28T06:33:44.688Z,36.4
2018-07-28T06:34:34.776Z,35.9
2018-07-28T06:35:24.662Z,35.7
2018-07-28T06:36:14.637Z,35.5
2018-07-28T06:37:04.967Z,35.4
2018-07-28T06:37:54.485Z,35.3
2018-07-28T06:38:44.856Z,35.3
2018-07-28T06:39:35.288Z,35.1
2018-07-28T06:40:25.249Z,35.4
2018-07-28T06:41:14.463Z,37.3
2018-07-28T06:42:04.880Z,38.1
2018-07-28T06:42:55.192Z,38.3
2018-07-28T06:43:45.288Z,38.3
2018-07-28T06:44:35.373Z,38.5
2018-07-28T06:45:25.205Z,38.8
2018-07-28T06:46:15.509Z,39.2
2018-07-28T06:47:04.972Z,39.4
2018-07-28T06:47:55.126Z,39.3
2018-07-28T06:48:45.185Z,39.1
2018-07-28T06:49:35.325Z,38.9
2018-07-28T06:50:25.622Z,38.8
2018-07-28T06:51:15.399Z,38.8
2018-07-28T06:52:05.234Z,38.8
2018-07-28T06:52:56.045Z,38.8
2018-07-28T06:53:46.870Z,38.8
2018-07-28T06:54:36.394Z,38.7
2018-07-28T06:55:25.308Z,38.7
2018-07-28T06:56:16.547Z,38.7
2018-07-28T06:57:06.035Z,38.7
2018-07-28T06:57:56.401Z,38.8
2018-07-28T06:58:46.921Z,38.8
2018-07-28T06:59:36.789Z,38.9
2018-07-28T07:00:26.531Z,39.1
2018-07-28T07:01:16.854Z,39.3
2018-07-28T07:02:06.713Z,39.4
2018-07-28T07:02:56.963Z,39.4
2018-07-28T07:03:46.768Z,39.4
2018-07-28T07:04:36.620Z,39.4
2018-07-28T07:05:26.654Z,39.4
2018-07-28T07:06:15.545Z,39.4
2018-07-28T07:07:06.499Z,39.4
2018-07-28T07:07:57.098Z,39.4
2018-07-28T07:08:47.465Z,39.4
2018-07-28T07:09:37.529Z,39.9
2018-07-28T07:10:26.718Z,40.8
2018-07-28T07:11:17.338Z,41.9
2018-07-28T07:12:07.446Z,42.8
2018-07-28T07:12:57.459Z,43.4
2018-07-28T07:13:47.562Z,43.6
2018-07-28T07:14:37.421Z,43.3
2018-07-28T07:15:27.419Z,42.8
2018-07-28T07:16:18.013Z,42.3
2018-07-28T07:17:07.624Z,41.9
2018-07-28T07:17:58.210Z,41.6
2018-07-28T07:18:48.281Z,41.6
2018-07-28T07:19:38.041Z,42
2018-07-28T07:20:28.172Z,42.6
2018-07-28T07:21:18.154Z,43.1
2018-07-28T07:22:07.978Z,43.4
2018-07-28T07:22:58.043Z,43.6
2018-07-28T07:23:47.551Z,43.8
2018-07-28T07:24:38.521Z,44
2018-07-28T07:25:28.190Z,44.4
2018-07-28T07:26:18.805Z,44.8
2018-07-28T07:27:08.874Z,45.1
2018-07-28T07:27:58.686Z,45.1
2018-07-28T07:28:48.793Z,44.3
2018-07-28T07:29:39.085Z,43.4
2018-07-28T07:30:29.034Z,42.8
2018-07-28T07:31:18.697Z,42.3
2018-07-28T07:32:09.047Z,42.1
2018-07-28T07:32:59.124Z,42.1
2018-07-28T07:33:48.859Z,42.4
2018-07-28T07:34:39.458Z,42.8
2018-07-28T07:35:29.490Z,43.5
2018-07-28T07:36:19.820Z,44.3
2018-07-28T07:37:09.330Z,44.4
2018-07-28T07:37:58.658Z,43.9
2018-07-28T07:38:49.743Z,43.4
2018-07-28T07:39:39.524Z,43.1
2018-07-28T07:40:29.929Z,42.9
2018-07-28T07:41:19.924Z,43
2018-07-28T07:42:09.737Z,43.3
2018-07-28T07:43:00.088Z,43.8
2018-07-28T07:43:49.372Z,44.6
2018-07-28T07:44:39.658Z,45.4
2018-07-28T07:45:30.187Z,45.8
2018-07-28T07:46:20.074Z,45.5
2018-07-28T07:47:10.234Z,44.8
2018-07-28T07:48:00.514Z,44.1
2018-07-28T07:48:49.737Z,43.7
2018-07-28T07:49:40.057Z,43.5
2018-07-28T07:50:30.399Z,43.5
2018-07-28T07:51:20.195Z,43.8
2018-07-28T07:52:09.968Z,44.6
2018-07-28T07:53:00.593Z,45.6
2018-07-28T07:53:50.542Z,46.4
2018-07-28T07:54:40.806Z,46.9
2018-07-28T07:55:30.504Z,47.2
2018-07-28T07:56:20.088Z,47.4
2018-07-28T07:57:10.700Z,47.7
2018-07-28T07:58:01.345Z,47.6
2018-07-28T07:58:51.375Z,47.2
2018-07-28T07:59:40.886Z,47.4
2018-07-28T08:00:31.215Z,47.9
2018-07-28T08:01:20.971Z,48.5
2018-07-28T08:02:11.065Z,49
2018-07-28T08:03:01.643Z,49.3
2018-07-28T08:03:50.911Z,48.8
2018-07-28T08:04:41.346Z,47.9
2018-07-28T08:05:31.923Z,47.1
2018-07-28T08:06:21.989Z,46.5
2018-07-28T08:07:11.704Z,46.3
2018-07-28T08:08:01.766Z,46.7
2018-07-28T08:08:52.113Z,47.8
2018-07-28T08:09:41.436Z,48.7
2018-07-28T08:10:31.991Z,49.3
2018-07-28T08:11:22.042Z,49.6
2018-07-28T08:12:11.776Z,49.8
2018-07-28T08:13:01.866Z,49.9
2018-07-28T08:13:51.942Z,50.1
2018-07-28T08:14:41.394Z,50.3
2018-07-28T08:15:32.074Z,50
2018-07-28T08:16:21.815Z,49.6
2018-07-28T08:17:11.683Z,49.9
2018-07-28T08:18:02.299Z,50.6
2018-07-28T08:18:52.321Z,51.1
2018-07-28T08:19:42.880Z,51.5
2018-07-28T08:20:32.730Z,51.8
2018-07-28T08:21:22.510Z,51.9
2018-07-28T08:22:12.838Z,52.1
2018-07-28T08:23:02.611Z,52.3
2018-07-28T08:23:52.837Z,52.5
2018-07-28T08:24:42.425Z,52.8
2018-07-28T08:25:33.339Z,52.8
2018-07-28T08:26:23.168Z,52.1
2018-07-28T08:27:13.316Z,51.6
2018-07-28T08:28:02.748Z,51.8
2018-07-28T08:28:53.377Z,51.8
2018-07-28T08:29:43.756Z,51.2
2018-07-28T08:30:33.060Z,50.4
2018-07-28T08:31:23.587Z,49.7
2018-07-28T08:32:13.377Z,49.8
2018-07-28T08:33:03.737Z,50.6
2018-07-28T08:33:54.073Z,51.8
2018-07-28T08:34:43.592Z,52.5
2018-07-28T08:35:33.679Z,52.9
2018-07-28T08:36:23.967Z,53.1
2018-07-28T08:37:14.034Z,53.3
2018-07-28T08:38:04.198Z,53.4
2018-07-28T08:38:54.460Z,53.8
2018-07-28T08:39:44.035Z,54
2018-07-28T08:40:34.584Z,54.3
2018-07-28T08:41:24.331Z,54.5
2018-07-28T08:42:13.839Z,54.7
2018-07-28T08:43:03.350Z,54.9
2018-07-28T08:43:54.822Z,55.1
2018-07-28T08:44:44.843Z,55.3
2018-07-28T08:45:34.377Z,55.5
2018-07-28T08:46:25.013Z,55.7
2018-07-28T08:47:14.671Z,55.9
2018-07-28T08:48:04.395Z,56.1
2018-07-28T08:48:56.431Z,56.1
2018-07-28T08:49:45.938Z,56.3
2018-07-28T08:50:35.387Z,56.5
2018-07-28T08:51:25.448Z,56.6
2018-07-28T08:52:15.220Z,56.8
2018-07-28T08:53:05.284Z,57
2018-07-28T08:53:54.834Z,57.1
2018-07-28T08:54:45.356Z,57.3
2018-07-28T08:55:36.526Z,57.6
2018-07-28T08:56:25.561Z,57.8
2018-07-28T08:57:14.879Z,58.1
2018-07-28T08:58:05.960Z,58.4
2018-07-28T08:58:56.019Z,58.5
2018-07-28T08:59:45.802Z,57.8
2018-07-28T09:00:36.134Z,56.8
2018-07-28T09:01:25.959Z,55.7
2018-07-28T09:02:16.316Z,55.5
2018-07-28T09:03:05.536Z,56.3
2018-07-28T09:03:56.421Z,57.3
2018-07-28T09:04:46.480Z,58
2018-07-28T09:05:36.226Z,58.4
2018-07-28T09:06:26.059Z,58.5
2018-07-28T09:07:16.091Z,58.7
2018-07-28T09:08:06.154Z,58.9
2018-07-28T09:08:55.643Z,59.2
2018-07-28T09:09:46.271Z,59.5
2018-07-28T09:10:37.267Z,59.8
2018-07-28T09:11:26.178Z,59.8
2018-07-28T09:12:16.723Z,59.1
2018-07-28T09:13:06.551Z,58.8
2018-07-28T09:13:56.114Z,59.1
2018-07-28T09:14:46.613Z,59.7
2018-07-28T09:15:36.705Z,60.1
2018-07-28T09:16:28.069Z,59.8
2018-07-28T09:17:17.135Z,58.9
2018-07-28T09:18:08.036Z,58.9
2018-07-28T09:18:56.990Z,59.1
2018-07-28T09:20:37.125Z,57.9
2018-07-28T09:21:27.192Z,58
2018-07-28T09:22:17.025Z,58.4
2018-07-28T09:23:08.011Z,59.1
2018-07-28T09:23:57.700Z,59.8
2018-07-28T09:24:47.761Z,60.2
2018-07-28T09:25:38.126Z,60.5
2018-07-28T09:26:28.182Z,60.6
2018-07-28T09:27:17.733Z,60.8
2018-07-28T09:28:08.044Z,61
2018-07-28T09:28:57.879Z,61.2
2018-07-28T09:29:48.134Z,61.4
2018-07-28T09:30:38.905Z,61.6
2018-07-28T09:31:28.263Z,61.7
2018-07-28T09:32:18.314Z,61.9
2018-07-28T09:33:08.683Z,62
2018-07-28T09:33:58.729Z,62.2
2018-07-28T09:34:48.510Z,62.3
2018-07-28T09:35:38.386Z,62.4
2018-07-28T09:36:28.939Z,62.5
2018-07-28T09:37:18.244Z,62.7
2018-07-28T09:38:08.526Z,62.8
2018-07-28T09:38:59.206Z,62.9
2018-07-28T09:39:48.461Z,63.1
2018-07-28T09:40:38.968Z,63.2
2018-07-28T09:41:28.993Z,63.3
2018-07-28T09:42:19.083Z,63.4
2018-07-28T09:43:08.606Z,63.6
2018-07-28T09:43:59.500Z,63.6
2018-07-28T09:44:49.585Z,63.7
2018-07-28T09:45:38.535Z,63.8
2018-07-28T09:46:30.982Z,63.9
2018-07-28T09:47:19.298Z,63.9
2018-07-28T09:48:09.530Z,64
2018-07-28T09:48:59.859Z,64.1
2018-07-28T09:49:49.653Z,64.2
2018-07-28T09:50:39.426Z,64.3
2018-07-28T09:51:29.786Z,64.4
2018-07-28T09:52:19.282Z,64.5
2018-07-28T09:53:09.598Z,64.6
2018-07-28T09:54:00.274Z,64.6
2018-07-28T09:54:49.324Z,64.7
2018-07-28T09:55:40.441Z,64.8
2018-07-28T09:56:30.497Z,64.8
2018-07-28T09:57:20.274Z,64.9
2018-07-28T09:58:10.082Z,64.9
2018-07-28T09:59:00.248Z,65.1
2018-07-28T09:59:49.935Z,65.1
2018-07-28T10:00:40.835Z,65.3
2018-07-28T10:01:30.705Z,65.3
2018-07-28T10:02:20.968Z,65.3
2018-07-28T10:03:11.025Z,65.4
2018-07-28T10:04:00.855Z,65.4
2018-07-28T10:04:50.876Z,65.5
2018-07-28T10:05:42.009Z,65.6
2018-07-28T10:06:30.737Z,65.7
2018-07-28T10:07:21.136Z,65.8
2018-07-28T10:08:11.114Z,65.8
2018-07-28T10:09:00.649Z,65.9
2018-07-28T10:09:50.712Z,66
2018-07-28T10:10:41.059Z,66.1
2018-07-28T10:11:31.402Z,66.1
2018-07-28T10:12:21.809Z,66.2
2018-07-28T10:13:11.537Z,66.3
2018-07-28T10:14:01.030Z,66.3
2018-07-28T10:14:51.643Z,66.4
2018-07-28T10:15:41.700Z,66.4
2018-07-28T10:16:31.473Z,66.5
2018-07-28T10:17:22.110Z,66.6
2018-07-28T10:18:12.144Z,66.6
2018-07-28T10:19:02.107Z,66.8
2018-07-28T10:19:51.427Z,66.8
2018-07-28T10:20:42.043Z,66.8
2018-07-28T10:21:32.140Z,66.9
2018-07-28T10:22:22.464Z,66.9
2018-07-28T10:23:11.687Z,66.9
2018-07-28T10:24:02.050Z,67
2018-07-28T10:24:52.234Z,67.1
2018-07-28T10:25:42.189Z,67.1
2018-07-28T10:26:32.565Z,67.3
2018-07-28T10:27:22.364Z,67.3
2018-07-28T10:28:12.989Z,67.3
2018-07-28T10:29:02.506Z,67.3
2018-07-28T10:29:52.785Z,66.4
2018-07-28T10:30:42.846Z,65.1
2018-07-28T10:31:32.908Z,64.1
2018-07-28T10:32:23.293Z,63.9
2018-07-28T10:33:12.483Z,64.7
2018-07-28T10:34:03.190Z,65.7
2018-07-28T10:34:53.704Z,66.4
2018-07-28T10:35:43.010Z,66.8
2018-07-28T10:36:35.073Z,66.9
2018-07-28T10:37:23.170Z,67
2018-07-28T10:38:13.787Z,67.1
2018-07-28T10:39:03.612Z,67.3
2018-07-28T10:39:53.630Z,67.4
2018-07-28T10:40:43.960Z,67.5
2018-07-28T10:41:33.807Z,67.6
2018-07-28T10:42:23.264Z,67.7
2018-07-28T10:43:13.934Z,67.8
2018-07-28T10:44:04.208Z,67.9
2018-07-28T10:44:53.993Z,67.9
2018-07-28T10:45:44.670Z,68
2018-07-28T10:46:34.381Z,68
2018-07-28T10:47:24.220Z,68.1
2018-07-28T10:48:14.604Z,68.1
2018-07-28T10:49:04.350Z,68.1
2018-07-28T10:49:54.388Z,68.1
2018-07-28T10:50:44.466Z,68.1
2018-07-28T10:51:34.495Z,68.1
2018-07-28T10:52:24.798Z,68.2
2018-07-28T10:53:14.627Z,68.3
2018-07-28T10:54:04.695Z,68.3
2018-07-28T10:54:54.464Z,68.4
2018-07-28T10:55:44.571Z,68.4
2018-07-28T10:56:34.329Z,68.5
2018-07-28T10:57:24.954Z,68.5
2018-07-28T10:58:14.542Z,68.6
2018-07-28T10:59:05.171Z,68.7
2018-07-28T10:59:55.507Z,68.8
2018-07-28T11:00:45.170Z,68.8
2018-07-28T11:01:34.415Z,68.9
2018-07-28T11:02:25.344Z,68.9
2018-07-28T11:03:15.149Z,69
2018-07-28T11:04:05.540Z,69
2018-07-28T11:04:54.979Z,69.1
2018-07-28T11:05:45.340Z,69
2018-07-28T11:06:34.815Z,69
2018-07-28T11:07:25.699Z,68.9
2018-07-28T11:08:15.522Z,69
2018-07-28T11:09:05.843Z,69
2018-07-28T11:09:55.962Z,69
2018-07-28T11:10:45.434Z,68.9